createdAt,value
2023-12-07T00:00:51.916Z,100707.88
2023-12-07T00:05:53.381Z,100706.13
2023-12-07T00:10:54.824Z,100704.03
2023-12-07T00:15:56.308Z,100712.03
2023-12-07T00:20:57.737Z,100720.75
2023-12-07T00:25:59.199Z,100726.53
2023-12-07T00:31:00.673Z,100729.47
2023-12-07T00:36:02.068Z,100729.97
2023-12-07T00:41:03.629Z,100717.25
2023-12-07T00:46:08.451Z,100736.38
2023-12-07T00:51:10.853Z,100733.06
2023-12-07T00:56:12.318Z,100730.56
2023-12-07T01:01:13.880Z,100726.59
2023-12-07T01:06:17.786Z,100736.06
2023-12-07T01:11:19.281Z,100749.31
2023-12-07T01:16:20.706Z,100746.06
2023-12-07T01:21:22.203Z,100754.50
2023-12-07T01:26:23.632Z,100758.75
2023-12-07T01:31:25.218Z,100770.13
2023-12-07T01:36:26.739Z,100772.56
2023-12-07T01:41:28.138Z,100782.28
2023-12-07T01:46:29.673Z,100770.38
2023-12-07T01:51:32.306Z,100774.16
2023-12-07T01:56:33.799Z,100785.66
2023-12-07T02:01:35.206Z,100786.16
2023-12-07T02:06:36.805Z,100789.22
2023-12-07T02:11:38.202Z,100793.94
2023-12-07T02:17:29.979Z,100794.19
2023-12-07T02:22:50.700Z,100789.31
2023-12-07T02:27:52.118Z,100795.34
2023-12-07T02:32:53.757Z,100791.59
2023-12-07T02:37:55.753Z,100796.63
2023-12-07T02:42:58.448Z,100794.44
2023-12-07T02:48:00.066Z,100806.81
2023-12-07T02:53:01.544Z,100796.03
2023-12-07T02:58:03.117Z,100801.09
2023-12-07T03:03:05.005Z,100809.63
2023-12-07T03:08:06.482Z,100808.50
2023-12-07T03:13:07.951Z,100810.16
2023-12-07T03:18:09.562Z,100822.41
2023-12-07T03:23:11.004Z,100809.00
2023-12-07T03:28:12.412Z,100811.09
2023-12-07T03:33:13.957Z,100810.25
2023-12-07T03:38:16.094Z,100818.00
2023-12-07T03:43:20.343Z,100812.91
2023-12-07T03:48:21.909Z,100818.56
2023-12-07T03:53:23.318Z,100815.38
2023-12-07T03:58:24.803Z,100830.84
2023-12-07T04:03:26.366Z,100826.81
2023-12-07T04:08:27.784Z,100841.91
2023-12-07T04:13:29.200Z,100840.09
2023-12-07T04:18:30.636Z,100836.59
2023-12-07T04:23:32.395Z,100838.97
2023-12-07T04:28:33.792Z,100841.97
2023-12-07T04:33:35.350Z,100847.69
2023-12-07T04:38:36.874Z,100840.16
2023-12-07T04:43:38.283Z,100846.09
2023-12-07T04:48:39.680Z,100844.91
2023-12-07T04:53:41.229Z,100864.22
2023-12-07T04:58:43.150Z,100863.13
2023-12-07T05:03:44.591Z,100857.28
2023-12-07T05:08:45.979Z,100865.00
2023-12-07T05:13:48.997Z,100862.56
2023-12-07T05:18:50.453Z,100861.84
2023-12-07T05:23:51.912Z,100859.63
2023-12-07T05:28:53.322Z,100867.59
2023-12-07T05:33:54.744Z,100869.63
2023-12-07T05:38:56.510Z,100871.88
2023-12-07T05:43:57.882Z,100871.34
2023-12-07T05:48:59.726Z,100874.22
2023-12-07T05:54:01.134Z,100863.22
2023-12-07T05:59:02.513Z,100870.53
2023-12-07T06:04:03.966Z,100872.78
2023-12-07T06:09:09.120Z,100881.47
2023-12-07T06:14:10.649Z,100879.53
2023-12-07T06:19:12.112Z,100878.91
2023-12-07T06:24:15.302Z,100885.38
2023-12-07T06:29:16.731Z,100886.97
2023-12-07T06:34:18.276Z,100880.91
2023-12-07T06:39:19.818Z,100894.50
2023-12-07T06:44:21.190Z,100903.72
2023-12-07T06:49:25.428Z,100900.72
2023-12-07T06:54:28.272Z,100913.69
2023-12-07T06:59:29.673Z,100914.53
2023-12-07T07:04:31.117Z,100914.63
2023-12-07T07:09:32.586Z,100920.25
2023-12-07T07:14:34.064Z,100930.00
2023-12-07T07:19:35.531Z,100929.38
2023-12-07T07:24:36.927Z,100925.25
2023-12-07T07:29:38.388Z,100933.19
2023-12-07T07:34:40.670Z,100939.56
2023-12-07T07:39:42.177Z,100928.75
2023-12-07T07:44:43.720Z,100932.56
2023-12-07T07:49:45.153Z,100935.19
2023-12-07T07:54:46.549Z,100937.94
2023-12-07T07:59:47.923Z,100936.56
2023-12-07T08:04:49.441Z,100918.63
2023-12-07T08:09:50.829Z,100919.88
2023-12-07T08:14:52.330Z,100914.06
2023-12-07T08:19:54.384Z,100908.75
2023-12-07T08:25:01.347Z,100894.19
2023-12-07T08:30:10.539Z,100881.44
2023-12-07T08:35:12.124Z,100892.91
2023-12-07T08:40:16.218Z,100886.19
2023-12-07T08:45:18.476Z,100892.03
2023-12-07T08:50:19.860Z,100882.63
2023-12-07T08:55:21.426Z,100904.78
2023-12-07T09:00:25.244Z,100896.69
2023-12-07T09:05:27.683Z,100889.56
2023-12-07T09:10:29.352Z,100896.72
2023-12-07T09:15:31.234Z,100907.59
2023-12-07T09:20:32.615Z,100902.09
2023-12-07T09:25:34.059Z,100908.38
2023-12-07T09:30:35.752Z,100904.88
2023-12-07T09:35:37.168Z,100889.53
2023-12-07T09:40:38.574Z,100911.78
2023-12-07T09:45:40.246Z,100919.16
2023-12-07T09:50:41.652Z,100915.56
2023-12-07T09:55:43.026Z,100913.13
2023-12-07T10:00:44.788Z,100913.72
2023-12-07T10:05:57.420Z,100907.19
2023-12-07T10:11:14.119Z,100894.88
2023-12-07T10:16:17.396Z,100895.59
2023-12-07T10:21:32.750Z,100874.56
2023-12-07T10:26:35.430Z,100864.75
2023-12-07T10:31:39.083Z,100863.91
2023-12-07T10:36:41.743Z,100850.53
2023-12-07T10:41:44.696Z,100840.50
2023-12-07T10:46:46.401Z,100838.84
2023-12-07T10:52:02.121Z,100840.13
2023-12-07T10:57:06.274Z,100839.47
2023-12-07T11:02:11.848Z,100821.94
2023-12-07T11:07:18.168Z,100822.78
2023-12-07T11:12:30.251Z,100819.97
2023-12-07T11:17:49.011Z,100801.69
2023-12-07T11:22:51.234Z,100791.41
2023-12-07T11:28:03.155Z,100784.97
2023-12-07T11:33:08.329Z,100787.19
2023-12-07T11:38:12.607Z,100781.72
2023-12-07T11:43:41.794Z,100771.41
2023-12-07T11:48:50.506Z,100759.66
2023-12-07T11:53:52.141Z,100755.41
2023-12-07T11:58:54.073Z,100748.28
2023-12-07T12:03:55.808Z,100736.59
2023-12-07T12:08:57.327Z,100735.34
2023-12-07T12:13:59.018Z,100718.75
2023-12-07T12:19:00.982Z,100713.00
2023-12-07T12:24:02.374Z,100701.88
2023-12-07T12:29:04.117Z,100697.38
2023-12-07T12:34:14.575Z,100697.38
2023-12-07T12:39:26.599Z,100698.94
2023-12-07T12:44:36.806Z,100695.72
2023-12-07T12:49:44.905Z,100694.16
2023-12-07T12:54:47.843Z,100703.84
2023-12-07T12:59:51.949Z,100695.72
2023-12-07T13:04:53.550Z,100689.09
2023-12-07T13:09:55.612Z,100683.06
2023-12-07T13:14:57.180Z,100677.28
2023-12-07T13:20:01.148Z,100681.22
2023-12-07T13:25:03.599Z,100666.06
2023-12-07T13:30:08.281Z,100664.34
2023-12-07T13:35:09.903Z,100656.09
2023-12-07T13:40:13.069Z,100654.13
2023-12-07T13:45:14.967Z,100657.06
2023-12-07T13:50:16.378Z,100656.47
2023-12-07T13:55:17.786Z,100659.13
2023-12-07T14:00:21.018Z,100652.66
2023-12-07T14:05:23.400Z,100653.25
2023-12-07T14:10:24.998Z,100645.34
2023-12-07T14:15:35.296Z,100632.00
2023-12-07T14:20:56.216Z,100622.16
2023-12-07T14:26:07.488Z,100623.56
2023-12-07T14:31:15.342Z,100616.88
2023-12-07T14:36:17.283Z,100609.72
2023-12-07T14:41:18.734Z,100616.28
2023-12-07T14:46:20.103Z,100599.31
2023-12-07T14:51:22.258Z,100598.88
2023-12-07T14:56:23.753Z,100586.22
2023-12-07T15:01:25.536Z,100581.47
2023-12-07T15:06:28.507Z,100575.28
2023-12-07T15:11:30.071Z,100568.25
2023-12-07T15:16:31.532Z,100579.63
2023-12-07T15:21:33.190Z,100572.31
2023-12-07T15:26:34.870Z,100560.69
2023-12-07T15:31:36.351Z,100547.78
2023-12-07T15:36:37.763Z,100535.53
2023-12-07T15:41:39.395Z,100531.75
2023-12-07T15:46:40.778Z,100523.63
2023-12-07T15:51:42.152Z,100533.56
2023-12-07T15:56:45.209Z,100543.94
2023-12-07T16:01:46.590Z,100550.09
2023-12-07T16:06:48.218Z,100548.41
2023-12-07T16:11:49.606Z,100536.22
2023-12-07T16:16:51.740Z,100544.44
2023-12-07T16:21:53.157Z,100524.94
2023-12-07T16:26:54.850Z,100534.97
2023-12-07T16:31:56.467Z,100531.91
2023-12-07T16:36:57.874Z,100520.25
2023-12-07T16:42:02.371Z,100509.19
2023-12-07T16:47:05.081Z,100500.28
2023-12-07T16:52:06.545Z,100508.69
2023-12-07T16:57:08.124Z,100499.53
2023-12-07T17:02:09.579Z,100498.03
2023-12-07T17:07:11.464Z,100479.53
2023-12-07T17:12:12.875Z,100481.09
2023-12-07T17:17:14.427Z,100477.28
2023-12-07T17:22:15.826Z,100469.78
2023-12-07T17:27:17.959Z,100468.84
2023-12-07T17:32:19.354Z,100467.88
2023-12-07T17:37:20.780Z,100469.13
2023-12-07T17:42:22.304Z,100466.78
2023-12-07T17:47:24.787Z,100465.56
2023-12-07T17:52:26.314Z,100475.56
2023-12-07T17:57:27.897Z,100480.81
2023-12-07T18:02:29.616Z,100460.06
2023-12-07T18:07:31.050Z,100460.59
2023-12-07T18:12:32.456Z,100468.44
2023-12-07T18:17:33.957Z,100463.56
2023-12-07T18:22:35.383Z,100456.31
2023-12-07T18:27:36.840Z,100456.63
2023-12-07T18:32:38.358Z,100446.38
2023-12-07T18:37:41.318Z,100436.66
2023-12-07T18:42:43.008Z,100429.16
2023-12-07T18:47:44.670Z,100419.09
2023-12-07T18:52:46.284Z,100417.59
2023-12-07T18:57:47.771Z,100419.72
2023-12-07T19:02:49.385Z,100413.00
2023-12-07T19:07:50.851Z,100412.19
2023-12-07T19:12:52.491Z,100412.94
2023-12-07T19:17:54.101Z,100401.25
2023-12-07T19:22:56.018Z,100405.03
2023-12-07T19:27:57.434Z,100405.53
2023-12-07T19:33:03.384Z,100399.72
2023-12-07T19:38:06.044Z,100396.59
2023-12-07T19:43:07.549Z,100388.28
2023-12-07T19:48:09.315Z,100394.91
2023-12-07T19:53:11.175Z,100375.91
2023-12-07T19:58:13.648Z,100377.06
2023-12-07T20:03:15.079Z,100354.19
2023-12-07T20:08:16.586Z,100349.25
2023-12-07T20:13:18.029Z,100332.97
2023-12-07T20:18:20.263Z,100312.75
2023-12-07T20:23:21.856Z,100298.78
2023-12-07T20:28:23.277Z,100293.22
2023-12-07T20:33:24.855Z,100292.59
2023-12-07T20:38:26.427Z,100283.81
2023-12-07T20:43:28.047Z,100278.28
2023-12-07T20:48:29.558Z,100260.06
2023-12-07T20:53:31.136Z,100231.09
2023-12-07T20:58:33.883Z,100212.75
2023-12-07T21:03:36.216Z,100198.84
2023-12-07T21:08:39.456Z,100185.94
2023-12-07T21:13:40.871Z,100192.41
2023-12-07T21:18:42.530Z,100191.41
2023-12-07T21:23:44.045Z,100206.28
2023-12-07T21:28:45.589Z,100193.19
2023-12-07T21:33:47.106Z,100168.66
2023-12-07T21:38:49.120Z,100154.38
2023-12-07T21:43:50.510Z,100165.50
2023-12-07T21:48:52.009Z,100140.00
2023-12-07T21:53:53.520Z,100136.03
2023-12-07T21:58:54.961Z,100119.81
2023-12-07T22:03:56.375Z,100127.25
2023-12-07T22:08:57.814Z,100122.31
2023-12-07T22:13:59.259Z,100125.19
2023-12-07T22:19:00.707Z,100102.19
2023-12-07T22:24:02.278Z,100096.28
2023-12-07T22:29:03.667Z,100094.41
2023-12-07T22:34:05.312Z,100091.44
2023-12-07T22:39:06.953Z,100080.16
2023-12-07T22:44:08.349Z,100086.31
2023-12-07T22:49:09.817Z,100077.41
2023-12-07T22:54:11.313Z,100073.25
2023-12-07T22:59:12.751Z,100060.97
2023-12-07T23:04:14.154Z,100060.84
2023-12-07T23:09:15.516Z,100051.22
2023-12-07T23:14:16.946Z,100037.38
2023-12-07T23:19:19.030Z,100028.13
2023-12-07T23:24:20.676Z,100011.53
2023-12-07T23:29:22.075Z,99989.97
2023-12-07T23:34:24.630Z,99977.94
2023-12-07T23:39:26.200Z,99971.53
2023-12-07T23:44:27.671Z,99981.59
2023-12-07T23:49:29.574Z,99974.59
2023-12-07T23:54:31.208Z,99970.84
2023-12-07T23:59:32.738Z,99959.53
